sensor_id;sensor_type;location;lat;lon;timestamp;temperature;humidity
65876;HTU21D;52657;51.128;5.938;2023-07-24T00:00:25;21.74;71.37
65876;HTU21D;52657;51.128;5.938;2023-07-24T00:02:50;21.72;71.43
65876;HTU21D;52657;51.128;5.938;2023-07-24T00:05:16;21.68;71.61
65876;HTU21D;52657;51.128;5.938;2023-07-24T00:07:42;21.67;71.71
65876;HTU21D;52657;51.128;5.938;2023-07-24T00:10:08;21.66;71.77
65876;HTU21D;52657;51.128;5.938;2023-07-24T00:12:34;21.67;71.94
65876;HTU21D;52657;51.128;5.938;2023-07-24T00:15:00;21.68;72.13
65876;HTU21D;52657;51.128;5.938;2023-07-24T00:17:26;21.68;72.36
65876;HTU21D;52657;51.128;5.938;2023-07-24T00:19:52;21.72;72.39
65876;HTU21D;52657;51.128;5.938;2023-07-24T00:22:17;21.73;72.59
65876;HTU21D;52657;51.128;5.938;2023-07-24T00:24:44;21.76;72.67
65876;HTU21D;52657;51.128;5.938;2023-07-24T00:27:10;21.77;72.64
65876;HTU21D;52657;51.128;5.938;2023-07-24T00:29:39;21.79;72.58
65876;HTU21D;52657;51.128;5.938;2023-07-24T00:32:05;21.79;72.65
65876;HTU21D;52657;51.128;5.938;2023-07-24T00:34:31;21.77;72.87
65876;HTU21D;52657;51.128;5.938;2023-07-24T00:36:57;21.77;73.00
65876;HTU21D;52657;51.128;5.938;2023-07-24T00:39:23;21.78;73.14
65876;HTU21D;52657;51.128;5.938;2023-07-24T00:41:50;21.76;73.18
65876;HTU21D;52657;51.128;5.938;2023-07-24T00:44:18;21.73;73.25
65876;HTU21D;52657;51.128;5.938;2023-07-24T00:46:44;21.72;73.26
65876;HTU21D;52657;51.128;5.938;2023-07-24T00:49:12;21.72;73.18
65876;HTU21D;52657;51.128;5.938;2023-07-24T00:51:39;21.72;73.12
65876;HTU21D;52657;51.128;5.938;2023-07-24T00:54:06;21.74;73.06
65876;HTU21D;52657;51.128;5.938;2023-07-24T00:56:34;21.74;72.99
65876;HTU21D;52657;51.128;5.938;2023-07-24T00:59:01;21.70;72.99
65876;HTU21D;52657;51.128;5.938;2023-07-24T01:01:28;21.67;73.17
65876;HTU21D;52657;51.128;5.938;2023-07-24T01:03:56;21.64;73.15
65876;HTU21D;52657;51.128;5.938;2023-07-24T01:06:24;21.60;73.31
65876;HTU21D;52657;51.128;5.938;2023-07-24T01:08:50;21.57;73.48
65876;HTU21D;52657;51.128;5.938;2023-07-24T01:11:19;21.52;73.62
65876;HTU21D;52657;51.128;5.938;2023-07-24T01:14:13;21.50;73.84
65876;HTU21D;52657;51.128;5.938;2023-07-24T01:16:42;21.50;74.03
65876;HTU21D;52657;51.128;5.938;2023-07-24T01:19:37;21.49;73.97
65876;HTU21D;52657;51.128;5.938;2023-07-24T01:27:32;21.52;73.72
65876;HTU21D;52657;51.128;5.938;2023-07-24T01:29:58;21.51;73.62
65876;HTU21D;52657;51.128;5.938;2023-07-24T01:32:24;21.52;73.60
65876;HTU21D;52657;51.128;5.938;2023-07-24T01:34:52;21.53;73.61
65876;HTU21D;52657;51.128;5.938;2023-07-24T01:37:20;21.52;73.71
65876;HTU21D;52657;51.128;5.938;2023-07-24T01:39:48;21.53;73.73
65876;HTU21D;52657;51.128;5.938;2023-07-24T01:42:14;21.53;73.82
65876;HTU21D;52657;51.128;5.938;2023-07-24T01:44:40;21.54;73.73
65876;HTU21D;52657;51.128;5.938;2023-07-24T01:47:06;21.53;73.93
65876;HTU21D;52657;51.128;5.938;2023-07-24T01:49:32;21.54;73.96
65876;HTU21D;52657;51.128;5.938;2023-07-24T01:51:58;21.53;74.02
65876;HTU21D;52657;51.128;5.938;2023-07-24T01:54:27;21.54;74.08
65876;HTU21D;52657;51.128;5.938;2023-07-24T01:56:53;21.53;74.13
65876;HTU21D;52657;51.128;5.938;2023-07-24T01:59:19;21.50;74.27
65876;HTU21D;52657;51.128;5.938;2023-07-24T02:01:45;21.49;74.38
65876;HTU21D;52657;51.128;5.938;2023-07-24T02:04:10;21.51;74.44
65876;HTU21D;52657;51.128;5.938;2023-07-24T02:06:36;21.54;74.36
65876;HTU21D;52657;51.128;5.938;2023-07-24T02:09:02;21.54;74.30
65876;HTU21D;52657;51.128;5.938;2023-07-24T02:11:28;21.53;74.38
65876;HTU21D;52657;51.128;5.938;2023-07-24T02:13:54;21.53;74.28
65876;HTU21D;52657;51.128;5.938;2023-07-24T02:16:20;21.51;74.47
65876;HTU21D;52657;51.128;5.938;2023-07-24T02:18:45;21.51;74.69
65876;HTU21D;52657;51.128;5.938;2023-07-24T02:21:18;21.50;74.76
65876;HTU21D;52657;51.128;5.938;2023-07-24T02:23:45;21.46;74.95
65876;HTU21D;52657;51.128;5.938;2023-07-24T02:26:11;21.43;75.09
65876;HTU21D;52657;51.128;5.938;2023-07-24T02:28:37;21.38;75.40
65876;HTU21D;52657;51.128;5.938;2023-07-24T02:31:03;21.39;75.50
65876;HTU21D;52657;51.128;5.938;2023-07-24T02:33:29;21.40;75.47
65876;HTU21D;52657;51.128;5.938;2023-07-24T02:35:55;21.36;75.61
65876;HTU21D;52657;51.128;5.938;2023-07-24T02:38:21;21.34;75.72
65876;HTU21D;52657;51.128;5.938;2023-07-24T02:40:47;21.32;75.86
65876;HTU21D;52657;51.128;5.938;2023-07-24T02:43:13;21.29;76.06
65876;HTU21D;52657;51.128;5.938;2023-07-24T02:45:39;21.31;76.02
65876;HTU21D;52657;51.128;5.938;2023-07-24T02:48:05;21.29;76.08
65876;HTU21D;52657;51.128;5.938;2023-07-24T02:50:32;21.30;76.04
65876;HTU21D;52657;51.128;5.938;2023-07-24T02:52:59;21.31;76.12
65876;HTU21D;52657;51.128;5.938;2023-07-24T02:55:25;21.36;75.99
65876;HTU21D;52657;51.128;5.938;2023-07-24T02:57:51;21.36;75.99
65876;HTU21D;52657;51.128;5.938;2023-07-24T03:00:17;21.38;75.92
65876;HTU21D;52657;51.128;5.938;2023-07-24T03:02:43;21.37;75.91
65876;HTU21D;52657;51.128;5.938;2023-07-24T03:05:09;21.35;75.86
65876;HTU21D;52657;51.128;5.938;2023-07-24T03:07:35;21.33;75.78
65876;HTU21D;52657;51.128;5.938;2023-07-24T03:10:02;21.34;75.73
65876;HTU21D;52657;51.128;5.938;2023-07-24T03:12:29;21.32;75.73
65876;HTU21D;52657;51.128;5.938;2023-07-24T03:14:55;21.30;75.87
65876;HTU21D;52657;51.128;5.938;2023-07-24T03:17:22;21.31;75.80
65876;HTU21D;52657;51.128;5.938;2023-07-24T03:19:49;21.27;75.96
65876;HTU21D;52657;51.128;5.938;2023-07-24T03:22:15;21.23;76.09
65876;HTU21D;52657;51.128;5.938;2023-07-24T03:24:41;21.19;76.09
65876;HTU21D;52657;51.128;5.938;2023-07-24T03:27:07;21.20;76.28
65876;HTU21D;52657;51.128;5.938;2023-07-24T03:29:32;21.20;76.19
65876;HTU21D;52657;51.128;5.938;2023-07-24T03:31:59;21.16;76.28
65876;HTU21D;52657;51.128;5.938;2023-07-24T03:34:25;21.13;76.41
65876;HTU21D;52657;51.128;5.938;2023-07-24T03:36:51;21.10;76.55
65876;HTU21D;52657;51.128;5.938;2023-07-24T03:39:17;21.13;76.57
65876;HTU21D;52657;51.128;5.938;2023-07-24T03:41:42;21.10;76.62
65876;HTU21D;52657;51.128;5.938;2023-07-24T03:44:09;21.10;76.49
65876;HTU21D;52657;51.128;5.938;2023-07-24T03:46:35;21.08;76.69
65876;HTU21D;52657;51.128;5.938;2023-07-24T03:49:01;21.06;76.74
65876;HTU21D;52657;51.128;5.938;2023-07-24T03:51:27;21.02;76.82
65876;HTU21D;52657;51.128;5.938;2023-07-24T03:53:53;21.00;76.82
65876;HTU21D;52657;51.128;5.938;2023-07-24T03:56:18;21.00;76.89
65876;HTU21D;52657;51.128;5.938;2023-07-24T03:58:45;21.00;76.95
65876;HTU21D;52657;51.128;5.938;2023-07-24T04:01:11;21.00;76.99
65876;HTU21D;52657;51.128;5.938;2023-07-24T04:03:37;21.02;76.94
65876;HTU21D;52657;51.128;5.938;2023-07-24T04:06:03;21.01;76.95
65876;HTU21D;52657;51.128;5.938;2023-07-24T04:08:29;21.01;76.96
65876;HTU21D;52657;51.128;5.938;2023-07-24T04:10:55;21.03;76.93
65876;HTU21D;52657;51.128;5.938;2023-07-24T04:13:23;21.05;76.90
65876;HTU21D;52657;51.128;5.938;2023-07-24T04:15:50;21.05;76.86
65876;HTU21D;52657;51.128;5.938;2023-07-24T04:18:16;21.02;76.93
65876;HTU21D;52657;51.128;5.938;2023-07-24T04:20:41;20.99;77.07
65876;HTU21D;52657;51.128;5.938;2023-07-24T04:23:07;21.02;77.18
65876;HTU21D;52657;51.128;5.938;2023-07-24T04:25:33;21.05;76.98
65876;HTU21D;52657;51.128;5.938;2023-07-24T04:27:59;21.01;76.95
65876;HTU21D;52657;51.128;5.938;2023-07-24T04:30:25;21.01;77.11
65876;HTU21D;52657;51.128;5.938;2023-07-24T04:32:51;21.03;77.00
65876;HTU21D;52657;51.128;5.938;2023-07-24T04:35:17;21.08;76.79
65876;HTU21D;52657;51.128;5.938;2023-07-24T04:37:43;21.09;76.70
65876;HTU21D;52657;51.128;5.938;2023-07-24T04:40:11;21.10;76.57
65876;HTU21D;52657;51.128;5.938;2023-07-24T04:42:37;21.07;76.65
65876;HTU21D;52657;51.128;5.938;2023-07-24T04:45:03;21.09;76.50
65876;HTU21D;52657;51.128;5.938;2023-07-24T04:47:29;21.08;76.52
65876;HTU21D;52657;51.128;5.938;2023-07-24T04:49:55;21.08;76.45
65876;HTU21D;52657;51.128;5.938;2023-07-24T04:52:21;21.09;76.53
65876;HTU21D;52657;51.128;5.938;2023-07-24T04:54:47;21.14;76.44
65876;HTU21D;52657;51.128;5.938;2023-07-24T04:57:12;21.15;76.37
65876;HTU21D;52657;51.128;5.938;2023-07-24T04:59:38;21.18;76.27
65876;HTU21D;52657;51.128;5.938;2023-07-24T05:02:04;21.17;76.20
65876;HTU21D;52657;51.128;5.938;2023-07-24T05:04:30;21.18;76.20
65876;HTU21D;52657;51.128;5.938;2023-07-24T05:06:55;21.18;76.18
65876;HTU21D;52657;51.128;5.938;2023-07-24T05:09:21;21.17;76.22
65876;HTU21D;52657;51.128;5.938;2023-07-24T05:11:47;21.14;76.34
65876;HTU21D;52657;51.128;5.938;2023-07-24T05:14:13;21.16;76.33
65876;HTU21D;52657;51.128;5.938;2023-07-24T05:16:39;21.18;76.15
65876;HTU21D;52657;51.128;5.938;2023-07-24T05:19:04;21.19;76.05
65876;HTU21D;52657;51.128;5.938;2023-07-24T05:21:30;21.16;76.15
65876;HTU21D;52657;51.128;5.938;2023-07-24T05:23:58;21.17;76.18
65876;HTU21D;52657;51.128;5.938;2023-07-24T05:26:24;21.19;76.03
65876;HTU21D;52657;51.128;5.938;2023-07-24T05:28:50;21.19;75.98
65876;HTU21D;52657;51.128;5.938;2023-07-24T05:31:18;21.18;75.96
65876;HTU21D;52657;51.128;5.938;2023-07-24T05:33:44;21.17;76.12
65876;HTU21D;52657;51.128;5.938;2023-07-24T05:36:10;21.23;76.21
65876;HTU21D;52657;51.128;5.938;2023-07-24T05:38:36;21.36;76.22
65876;HTU21D;52657;51.128;5.938;2023-07-24T05:41:03;21.42;76.07
65876;HTU21D;52657;51.128;5.938;2023-07-24T05:43:30;21.50;76.02
65876;HTU21D;52657;51.128;5.938;2023-07-24T05:45:57;21.62;75.98
65876;HTU21D;52657;51.128;5.938;2023-07-24T05:48:24;21.69;75.50
65876;HTU21D;52657;51.128;5.938;2023-07-24T05:50:50;21.72;75.13
65876;HTU21D;52657;51.128;5.938;2023-07-24T05:53:16;21.70;74.90
65876;HTU21D;52657;51.128;5.938;2023-07-24T05:55:45;21.69;74.91
65876;HTU21D;52657;51.128;5.938;2023-07-24T05:58:11;21.67;74.76
65876;HTU21D;52657;51.128;5.938;2023-07-24T06:00:37;21.68;75.02
65876;HTU21D;52657;51.128;5.938;2023-07-24T06:03:03;21.73;75.02
65876;HTU21D;52657;51.128;5.938;2023-07-24T06:05:29;21.78;75.06
65876;HTU21D;52657;51.128;5.938;2023-07-24T06:07:55;21.76;74.83
65876;HTU21D;52657;51.128;5.938;2023-07-24T06:10:21;21.73;74.57
65876;HTU21D;52657;51.128;5.938;2023-07-24T06:12:46;21.72;74.21
65876;HTU21D;52657;51.128;5.938;2023-07-24T06:15:13;21.69;74.00
65876;HTU21D;52657;51.128;5.938;2023-07-24T06:17:39;21.65;73.56
65876;HTU21D;52657;51.128;5.938;2023-07-24T06:20:06;21.64;73.38
65876;HTU21D;52657;51.128;5.938;2023-07-24T06:22:32;21.65;73.28
65876;HTU21D;52657;51.128;5.938;2023-07-24T06:24:57;21.65;73.20
65876;HTU21D;52657;51.128;5.938;2023-07-24T06:27:23;21.62;73.18
65876;HTU21D;52657;51.128;5.938;2023-07-24T06:29:50;21.60;73.12
65876;HTU21D;52657;51.128;5.938;2023-07-24T06:32:16;21.52;73.23
65876;HTU21D;52657;51.128;5.938;2023-07-24T06:34:42;21.54;73.35
65876;HTU21D;52657;51.128;5.938;2023-07-24T06:37:08;21.54;73.18
65876;HTU21D;52657;51.128;5.938;2023-07-24T06:39:33;21.50;73.10
65876;HTU21D;52657;51.128;5.938;2023-07-24T06:42:00;21.47;73.05
65876;HTU21D;52657;51.128;5.938;2023-07-24T06:44:25;21.48;72.90
65876;HTU21D;52657;51.128;5.938;2023-07-24T06:46:51;21.49;72.74
65876;HTU21D;52657;51.128;5.938;2023-07-24T06:49:17;21.42;72.77
65876;HTU21D;52657;51.128;5.938;2023-07-24T06:51:46;21.35;72.97
65876;HTU21D;52657;51.128;5.938;2023-07-24T06:54:12;21.43;73.04
65876;HTU21D;52657;51.128;5.938;2023-07-24T06:56:38;21.40;73.30
65876;HTU21D;52657;51.128;5.938;2023-07-24T06:59:04;21.43;73.42
65876;HTU21D;52657;51.128;5.938;2023-07-24T07:01:29;21.48;73.62
65876;HTU21D;52657;51.128;5.938;2023-07-24T07:03:55;21.63;75.07
65876;HTU21D;52657;51.128;5.938;2023-07-24T07:06:21;21.90;74.76
65876;HTU21D;52657;51.128;5.938;2023-07-24T07:08:47;22.06;73.83
65876;HTU21D;52657;51.128;5.938;2023-07-24T07:11:13;22.14;73.16
65876;HTU21D;52657;51.128;5.938;2023-07-24T07:13:39;22.17;73.05
65876;HTU21D;52657;51.128;5.938;2023-07-24T07:16:04;22.25;73.17
65876;HTU21D;52657;51.128;5.938;2023-07-24T07:18:30;22.37;73.02
65876;HTU21D;52657;51.128;5.938;2023-07-24T07:20:56;22.39;72.42
65876;HTU21D;52657;51.128;5.938;2023-07-24T07:23:22;22.38;72.41
65876;HTU21D;52657;51.128;5.938;2023-07-24T07:25:48;22.34;72.26
65876;HTU21D;52657;51.128;5.938;2023-07-24T07:28:16;22.26;72.05
65876;HTU21D;52657;51.128;5.938;2023-07-24T07:30:43;22.14;72.36
65876;HTU21D;52657;51.128;5.938;2023-07-24T07:33:09;22.10;72.68
65876;HTU21D;52657;51.128;5.938;2023-07-24T07:35:36;22.10;72.91
65876;HTU21D;52657;51.128;5.938;2023-07-24T07:38:02;22.10;72.83
65876;HTU21D;52657;51.128;5.938;2023-07-24T07:40:29;22.13;73.17
65876;HTU21D;52657;51.128;5.938;2023-07-24T07:42:56;22.19;73.21
65876;HTU21D;52657;51.128;5.938;2023-07-24T07:45:24;22.25;73.07
65876;HTU21D;52657;51.128;5.938;2023-07-24T07:47:50;22.19;72.70
65876;HTU21D;52657;51.128;5.938;2023-07-24T07:50:18;22.18;72.74
65876;HTU21D;52657;51.128;5.938;2023-07-24T07:52:44;22.20;72.82
65876;HTU21D;52657;51.128;5.938;2023-07-24T07:55:10;22.32;73.06
65876;HTU21D;52657;51.128;5.938;2023-07-24T07:57:37;22.63;74.27
65876;HTU21D;52657;51.128;5.938;2023-07-24T08:00:04;22.90;72.30
65876;HTU21D;52657;51.128;5.938;2023-07-24T08:02:31;22.97;71.89
65876;HTU21D;52657;51.128;5.938;2023-07-24T08:04:58;23.12;71.70
65876;HTU21D;52657;51.128;5.938;2023-07-24T08:07:24;23.18;70.74
65876;HTU21D;52657;51.128;5.938;2023-07-24T08:09:50;23.20;70.40
65876;HTU21D;52657;51.128;5.938;2023-07-24T08:12:16;23.20;70.19
65876;HTU21D;52657;51.128;5.938;2023-07-24T08:14:42;23.17;70.07
65876;HTU21D;52657;51.128;5.938;2023-07-24T08:17:07;23.16;70.38
65876;HTU21D;52657;51.128;5.938;2023-07-24T08:19:33;23.10;70.28
65876;HTU21D;52657;51.128;5.938;2023-07-24T08:21:59;23.06;70.45
65876;HTU21D;52657;51.128;5.938;2023-07-24T08:24:25;23.06;70.45
65876;HTU21D;52657;51.128;5.938;2023-07-24T08:26:51;23.00;70.27
65876;HTU21D;52657;51.128;5.938;2023-07-24T08:29:17;22.95;70.54
65876;HTU21D;52657;51.128;5.938;2023-07-24T08:31:43;22.97;70.83
65876;HTU21D;52657;51.128;5.938;2023-07-24T08:34:10;23.08;71.15
65876;HTU21D;52657;51.128;5.938;2023-07-24T08:36:35;23.17;70.77
65876;HTU21D;52657;51.128;5.938;2023-07-24T08:39:03;23.29;70.93
65876;HTU21D;52657;51.128;5.938;2023-07-24T08:41:29;23.74;71.31
65876;HTU21D;52657;51.128;5.938;2023-07-24T08:43:55;24.12;69.47
65876;HTU21D;52657;51.128;5.938;2023-07-24T08:46:22;24.48;68.03
65876;HTU21D;52657;51.128;5.938;2023-07-24T08:48:47;24.92;67.59
65876;HTU21D;52657;51.128;5.938;2023-07-24T08:51:15;25.27;64.71
65876;HTU21D;52657;51.128;5.938;2023-07-24T08:53:50;25.32;63.21
65876;HTU21D;52657;51.128;5.938;2023-07-24T08:56:16;25.18;63.69
65876;HTU21D;52657;51.128;5.938;2023-07-24T08:58:42;25.17;63.70
65876;HTU21D;52657;51.128;5.938;2023-07-24T09:01:08;25.06;63.34
65876;HTU21D;52657;51.128;5.938;2023-07-24T09:03:35;25.00;63.69
65876;HTU21D;52657;51.128;5.938;2023-07-24T09:06:02;24.94;63.72
65876;HTU21D;52657;51.128;5.938;2023-07-24T09:08:30;25.01;63.94
65876;HTU21D;52657;51.128;5.938;2023-07-24T09:10:57;25.04;63.72
65876;HTU21D;52657;51.128;5.938;2023-07-24T09:13:23;25.02;63.52
65876;HTU21D;52657;51.128;5.938;2023-07-24T09:15:49;24.99;63.18
65876;HTU21D;52657;51.128;5.938;2023-07-24T09:18:14;24.91;62.93
65876;HTU21D;52657;51.128;5.938;2023-07-24T09:20:44;24.77;63.13
65876;HTU21D;52657;51.128;5.938;2023-07-24T09:23:12;24.63;63.65
65876;HTU21D;52657;51.128;5.938;2023-07-24T09:25:39;24.58;63.86
65876;HTU21D;52657;51.128;5.938;2023-07-24T09:28:13;24.51;63.46
65876;HTU21D;52657;51.128;5.938;2023-07-24T09:30:40;24.39;64.08
65876;HTU21D;52657;51.128;5.938;2023-07-24T09:33:07;24.29;64.19
65876;HTU21D;52657;51.128;5.938;2023-07-24T09:35:33;24.23;64.05
65876;HTU21D;52657;51.128;5.938;2023-07-24T09:38:07;24.10;64.09
65876;HTU21D;52657;51.128;5.938;2023-07-24T09:40:44;24.10;64.65
65876;HTU21D;52657;51.128;5.938;2023-07-24T09:45:44;24.23;64.54
65876;HTU21D;52657;51.128;5.938;2023-07-24T09:48:12;24.26;64.37
65876;HTU21D;52657;51.128;5.938;2023-07-24T09:50:41;24.20;63.98
65876;HTU21D;52657;51.128;5.938;2023-07-24T09:56:01;24.09;64.56
65876;HTU21D;52657;51.128;5.938;2023-07-24T09:58:28;24.06;64.11
65876;HTU21D;52657;51.128;5.938;2023-07-24T10:00:56;24.02;64.30
65876;HTU21D;52657;51.128;5.938;2023-07-24T10:03:22;24.01;64.38
65876;HTU21D;52657;51.128;5.938;2023-07-24T10:05:49;24.01;64.71
65876;HTU21D;52657;51.128;5.938;2023-07-24T10:08:19;23.97;65.45
65876;HTU21D;52657;51.128;5.938;2023-07-24T10:10:45;23.96;66.06
65876;HTU21D;52657;51.128;5.938;2023-07-24T10:13:13;23.94;67.11
65876;HTU21D;52657;51.128;5.938;2023-07-24T10:15:41;23.89;66.91
65876;HTU21D;52657;51.128;5.938;2023-07-24T10:18:09;23.82;66.87
65876;HTU21D;52657;51.128;5.938;2023-07-24T10:20:39;23.69;66.76
65876;HTU21D;52657;51.128;5.938;2023-07-24T10:23:10;23.58;66.59
65876;HTU21D;52657;51.128;5.938;2023-07-24T10:25:39;23.47;66.10
65876;HTU21D;52657;51.128;5.938;2023-07-24T10:28:11;23.39;66.65
65876;HTU21D;52657;51.128;5.938;2023-07-24T10:30:39;23.29;67.32
65876;HTU21D;52657;51.128;5.938;2023-07-24T10:33:16;23.27;67.65
65876;HTU21D;52657;51.128;5.938;2023-07-24T10:35:46;23.20;67.94
65876;HTU21D;52657;51.128;5.938;2023-07-24T10:38:14;23.22;68.30
65876;HTU21D;52657;51.128;5.938;2023-07-24T10:40:42;23.24;68.67
65876;HTU21D;52657;51.128;5.938;2023-07-24T10:43:10;23.26;68.90
65876;HTU21D;52657;51.128;5.938;2023-07-24T10:45:42;23.26;69.17
65876;HTU21D;52657;51.128;5.938;2023-07-24T10:48:08;23.22;69.47
65876;HTU21D;52657;51.128;5.938;2023-07-24T10:50:41;23.23;69.52
65876;HTU21D;52657;51.128;5.938;2023-07-24T10:53:13;23.16;69.56
65876;HTU21D;52657;51.128;5.938;2023-07-24T10:55:39;22.99;68.99
65876;HTU21D;52657;51.128;5.938;2023-07-24T10:58:08;22.83;67.65
65876;HTU21D;52657;51.128;5.938;2023-07-24T11:00:34;22.70;67.70
65876;HTU21D;52657;51.128;5.938;2023-07-24T11:03:01;22.78;67.94
65876;HTU21D;52657;51.128;5.938;2023-07-24T11:05:27;22.91;66.87
65876;HTU21D;52657;51.128;5.938;2023-07-24T11:07:53;23.00;67.10
65876;HTU21D;52657;51.128;5.938;2023-07-24T11:10:21;23.12;67.90
65876;HTU21D;52657;51.128;5.938;2023-07-24T11:12:48;23.15;66.30
65876;HTU21D;52657;51.128;5.938;2023-07-24T11:15:16;23.14;66.17
65876;HTU21D;52657;51.128;5.938;2023-07-24T11:17:42;23.32;66.43
65876;HTU21D;52657;51.128;5.938;2023-07-24T11:20:12;23.50;66.04
65876;HTU21D;52657;51.128;5.938;2023-07-24T11:22:43;23.71;65.97
65876;HTU21D;52657;51.128;5.938;2023-07-24T11:25:11;23.84;65.66
65876;HTU21D;52657;51.128;5.938;2023-07-24T11:27:42;23.89;65.31
65876;HTU21D;52657;51.128;5.938;2023-07-24T11:30:11;24.01;66.29
65876;HTU21D;52657;51.128;5.938;2023-07-24T11:32:42;24.17;66.62
65876;HTU21D;52657;51.128;5.938;2023-07-24T11:35:09;24.34;67.03
65876;HTU21D;52657;51.128;5.938;2023-07-24T11:37:35;24.56;66.12
65876;HTU21D;52657;51.128;5.938;2023-07-24T11:40:04;24.69;66.30
65876;HTU21D;52657;51.128;5.938;2023-07-24T11:42:53;24.79;65.54
65876;HTU21D;52657;51.128;5.938;2023-07-24T11:45:19;24.73;65.45
65876;HTU21D;52657;51.128;5.938;2023-07-24T11:47:49;24.64;64.88
65876;HTU21D;52657;51.128;5.938;2023-07-24T11:50:17;24.53;65.02
65876;HTU21D;52657;51.128;5.938;2023-07-24T11:52:45;24.53;65.60
65876;HTU21D;52657;51.128;5.938;2023-07-24T11:55:16;24.55;65.84
65876;HTU21D;52657;51.128;5.938;2023-07-24T11:57:42;24.50;65.18
65876;HTU21D;52657;51.128;5.938;2023-07-24T12:00:20;24.43;65.75
65876;HTU21D;52657;51.128;5.938;2023-07-24T12:02:46;24.43;65.50
65876;HTU21D;52657;51.128;5.938;2023-07-24T12:05:12;24.42;65.24
65876;HTU21D;52657;51.128;5.938;2023-07-24T12:07:38;24.41;65.81
65876;HTU21D;52657;51.128;5.938;2023-07-24T12:10:05;24.41;66.06
65876;HTU21D;52657;51.128;5.938;2023-07-24T12:12:44;24.41;65.45
65876;HTU21D;52657;51.128;5.938;2023-07-24T12:15:11;24.40;65.98
65876;HTU21D;52657;51.128;5.938;2023-07-24T12:17:37;24.53;65.24
65876;HTU21D;52657;51.128;5.938;2023-07-24T12:20:04;24.62;65.00
65876;HTU21D;52657;51.128;5.938;2023-07-24T12:22:32;24.74;64.76
65876;HTU21D;52657;51.128;5.938;2023-07-24T12:24:57;24.86;63.72
65876;HTU21D;52657;51.128;5.938;2023-07-24T12:27:24;24.95;62.96
65876;HTU21D;52657;51.128;5.938;2023-07-24T12:29:51;25.02;62.25
65876;HTU21D;52657;51.128;5.938;2023-07-24T12:32:17;25.03;61.86
65876;HTU21D;52657;51.128;5.938;2023-07-24T12:34:46;25.17;62.72
65876;HTU21D;52657;51.128;5.938;2023-07-24T12:37:12;25.29;62.89
65876;HTU21D;52657;51.128;5.938;2023-07-24T12:39:38;25.42;62.20
65876;HTU21D;52657;51.128;5.938;2023-07-24T12:42:05;25.43;61.09
65876;HTU21D;52657;51.128;5.938;2023-07-24T12:44:31;25.44;60.93
65876;HTU21D;52657;51.128;5.938;2023-07-24T12:46:57;25.51;60.49
65876;HTU21D;52657;51.128;5.938;2023-07-24T12:49:22;25.60;60.15
65876;HTU21D;52657;51.128;5.938;2023-07-24T12:51:48;25.69;59.62
65876;HTU21D;52657;51.128;5.938;2023-07-24T12:54:14;25.82;59.58
65876;HTU21D;52657;51.128;5.938;2023-07-24T12:56:40;25.88;59.14
65876;HTU21D;52657;51.128;5.938;2023-07-24T12:59:06;26.03;59.67
65876;HTU21D;52657;51.128;5.938;2023-07-24T13:01:32;26.16;58.61
65876;HTU21D;52657;51.128;5.938;2023-07-24T13:03:58;26.13;57.98
65876;HTU21D;52657;51.128;5.938;2023-07-24T13:06:24;26.17;57.58
65876;HTU21D;52657;51.128;5.938;2023-07-24T13:08:50;26.17;57.45
65876;HTU21D;52657;51.128;5.938;2023-07-24T13:11:16;26.19;56.72
65876;HTU21D;52657;51.128;5.938;2023-07-24T13:13:42;26.19;56.80
65876;HTU21D;52657;51.128;5.938;2023-07-24T13:16:08;26.30;56.24
65876;HTU21D;52657;51.128;5.938;2023-07-24T13:18:34;26.42;55.75
65876;HTU21D;52657;51.128;5.938;2023-07-24T13:20:59;26.48;55.20
65876;HTU21D;52657;51.128;5.938;2023-07-24T13:23:25;26.43;55.01
65876;HTU21D;52657;51.128;5.938;2023-07-24T13:25:52;26.40;54.69
65876;HTU21D;52657;51.128;5.938;2023-07-24T13:28:19;26.31;54.41
65876;HTU21D;52657;51.128;5.938;2023-07-24T13:30:45;26.13;54.26
65876;HTU21D;52657;51.128;5.938;2023-07-24T13:33:11;25.96;54.65
65876;HTU21D;52657;51.128;5.938;2023-07-24T13:35:37;25.80;54.90
65876;HTU21D;52657;51.128;5.938;2023-07-24T13:38:03;25.72;55.38
65876;HTU21D;52657;51.128;5.938;2023-07-24T13:40:29;25.65;56.13
65876;HTU21D;52657;51.128;5.938;2023-07-24T13:42:55;25.73;56.48
65876;HTU21D;52657;51.128;5.938;2023-07-24T13:45:21;25.74;56.12
65876;HTU21D;52657;51.128;5.938;2023-07-24T13:47:47;25.76;55.74
65876;HTU21D;52657;51.128;5.938;2023-07-24T13:50:13;25.79;55.23
65876;HTU21D;52657;51.128;5.938;2023-07-24T13:52:39;25.79;55.07
65876;HTU21D;52657;51.128;5.938;2023-07-24T13:55:04;25.80;54.76
65876;HTU21D;52657;51.128;5.938;2023-07-24T13:57:30;25.79;54.96
65876;HTU21D;52657;51.128;5.938;2023-07-24T13:59:56;25.80;54.78
65876;HTU21D;52657;51.128;5.938;2023-07-24T14:02:22;25.86;54.69
65876;HTU21D;52657;51.128;5.938;2023-07-24T14:04:48;25.82;54.05
65876;HTU21D;52657;51.128;5.938;2023-07-24T14:07:14;25.91;54.59
65876;HTU21D;52657;51.128;5.938;2023-07-24T14:09:39;26.01;54.12
65876;HTU21D;52657;51.128;5.938;2023-07-24T14:12:06;25.91;51.23
65876;HTU21D;52657;51.128;5.938;2023-07-24T14:14:32;25.78;52.03
65876;HTU21D;52657;51.128;5.938;2023-07-24T14:16:57;25.72;52.62
65876;HTU21D;52657;51.128;5.938;2023-07-24T14:19:23;25.72;52.03
65876;HTU21D;52657;51.128;5.938;2023-07-24T14:21:50;25.63;51.43
65876;HTU21D;52657;51.128;5.938;2023-07-24T14:24:16;25.52;52.08
65876;HTU21D;52657;51.128;5.938;2023-07-24T14:26:41;25.56;53.10
65876;HTU21D;52657;51.128;5.938;2023-07-24T14:29:07;25.65;53.27
65876;HTU21D;52657;51.128;5.938;2023-07-24T14:31:33;25.60;53.43
65876;HTU21D;52657;51.128;5.938;2023-07-24T14:33:59;25.63;54.45
65876;HTU21D;52657;51.128;5.938;2023-07-24T14:36:25;25.75;54.37
65876;HTU21D;52657;51.128;5.938;2023-07-24T14:38:53;25.73;53.15
65876;HTU21D;52657;51.128;5.938;2023-07-24T14:41:19;25.71;53.08
65876;HTU21D;52657;51.128;5.938;2023-07-24T14:43:45;25.63;53.18
65876;HTU21D;52657;51.128;5.938;2023-07-24T14:46:10;25.60;53.47
65876;HTU21D;52657;51.128;5.938;2023-07-24T14:48:36;25.60;53.06
65876;HTU21D;52657;51.128;5.938;2023-07-24T14:51:02;25.54;53.10
65876;HTU21D;52657;51.128;5.938;2023-07-24T14:53:28;25.50;52.94
65876;HTU21D;52657;51.128;5.938;2023-07-24T14:55:53;25.34;53.20
65876;HTU21D;52657;51.128;5.938;2023-07-24T14:58:19;25.22;53.70
65876;HTU21D;52657;51.128;5.938;2023-07-24T15:00:45;25.20;53.93
65876;HTU21D;52657;51.128;5.938;2023-07-24T15:03:11;25.28;54.83
65876;HTU21D;52657;51.128;5.938;2023-07-24T15:05:37;25.35;54.03
65876;HTU21D;52657;51.128;5.938;2023-07-24T15:08:03;25.33;53.40
65876;HTU21D;52657;51.128;5.938;2023-07-24T15:10:28;25.30;53.33
65876;HTU21D;52657;51.128;5.938;2023-07-24T15:12:54;25.32;53.79
65876;HTU21D;52657;51.128;5.938;2023-07-24T15:15:20;25.45;53.86
65876;HTU21D;52657;51.128;5.938;2023-07-24T15:17:46;25.68;54.07
65876;HTU21D;52657;51.128;5.938;2023-07-24T15:20:12;25.84;53.15
65876;HTU21D;52657;51.128;5.938;2023-07-24T15:22:40;25.91;52.59